createdAt,value
2022-12-08T00:01:44.338Z,100934.42
2022-12-08T00:04:14.325Z,100929.17
2022-12-08T00:06:54.196Z,100927.98
2022-12-08T00:09:23.126Z,100921.36
2022-12-08T00:11:44.202Z,100910.04000000001
2022-12-08T00:14:14.131Z,100909.23
2022-12-08T00:16:44.485Z,100902.04
2022-12-08T00:19:14.187Z,100904.14
2022-12-08T00:21:44.343Z,100901.72
2022-12-08T00:24:14.339Z,100893.16
2022-12-08T00:31:44.373Z,100884.26
2022-12-08T00:34:14.867Z,100884.34
2022-12-08T00:44:17.805Z,100861.78
2022-12-08T00:51:44.368Z,100863.3
2022-12-08T00:54:14.323Z,100864.73
2022-12-08T00:56:45.236Z,100874.25
2022-12-08T01:01:45.674Z,100870.45000000001
2022-12-08T01:04:16.534Z,100856.78
2022-12-08T01:06:45.215Z,100857.53
2022-12-08T01:09:16.309Z,100845.37
2022-12-08T01:11:45.413Z,100844.72
2022-12-08T01:14:14.622Z,100836.78
2022-12-08T01:16:44.551Z,100825.76000000001
2022-12-08T01:19:16.350Z,100829.69
2022-12-08T01:21:45.228Z,100826.99
2022-12-08T01:24:16.170Z,100822.49
2022-12-08T01:26:45.027Z,100814.37
2022-12-08T01:29:14.473Z,100814.53
2022-12-08T01:31:44.517Z,100815.07
2022-12-08T01:34:14.392Z,100811.46
2022-12-08T01:36:44.542Z,100819.65
2022-12-08T01:39:16.606Z,100821.92
2022-12-08T01:46:47.627Z,100823.83
2022-12-08T01:49:19.268Z,100828.47
2022-12-08T01:51:50.609Z,100830.29000000001
2022-12-08T01:54:15.369Z,100820.26
2022-12-08T01:56:55.041Z,100811.06
2022-12-08T01:59:14.706Z,100798.26000000001
2022-12-08T02:01:44.782Z,100796.3
2022-12-08T02:04:14.245Z,100794.12
2022-12-08T02:06:46.683Z,100786.83
2022-12-08T02:09:14.704Z,100789.69
2022-12-08T02:14:14.658Z,100786.31
2022-12-08T02:16:55.663Z,100786.83
2022-12-08T02:19:34.048Z,100785.67
2022-12-08T02:21:51.370Z,100792.35
2022-12-08T02:24:22.543Z,100805.38
2022-12-08T02:27:03.977Z,100822.74
2022-12-08T02:31:58.483Z,100829.16
2022-12-08T02:34:22.216Z,100847.28
2022-12-08T02:36:56.246Z,100831.93
2022-12-08T02:39:27.635Z,100833.15
2022-12-08T02:41:51.145Z,100813.75
2022-12-08T02:44:24.031Z,100812.15
2022-12-08T02:46:50.223Z,100803.31
2022-12-08T02:51:44.660Z,100789.79000000001
2022-12-08T02:54:14.627Z,100785.56999999999
2022-12-08T02:57:02.605Z,100769.75
2022-12-08T03:01:57.069Z,100763.56
2022-12-08T03:04:23.425Z,100754.45999999999
2022-12-08T03:06:50.834Z,100746.25
2022-12-08T03:09:24.193Z,100741.39
2022-12-08T03:11:49.763Z,100732.33
2022-12-08T03:14:17.018Z,100730.98
2022-12-08T03:16:48.390Z,100725.25
2022-12-08T03:19:19.144Z,100721.37
2022-12-08T03:21:49.115Z,100724.65999999999
2022-12-08T03:24:16.565Z,100724.84
2022-12-08T03:29:14.488Z,100722.53
2022-12-08T03:31:52.380Z,100722.92
2022-12-08T03:34:15.684Z,100731.64
2022-12-08T03:36:44.981Z,100731.14
2022-12-08T03:39:14.429Z,100731.48
2022-12-08T03:44:14.576Z,100727.8
2022-12-08T03:49:14.248Z,100713.81
2022-12-08T03:51:44.271Z,100716.6
2022-12-08T03:54:14.228Z,100717.88
2022-12-08T04:01:44.524Z,100715.95
2022-12-08T04:04:14.217Z,100716.27
2022-12-08T04:06:44.245Z,100714.67
2022-12-08T04:09:14.268Z,100711.94
2022-12-08T04:19:14.469Z,100696.98
2022-12-08T04:21:44.236Z,100696.17
2022-12-08T04:24:14.368Z,100692.5
2022-12-08T04:26:44.978Z,100692.52
2022-12-08T04:29:14.749Z,100692.66
2022-12-08T04:31:44.330Z,100695.34
2022-12-08T04:34:14.295Z,100693.37000000001
2022-12-08T04:36:44.235Z,100695.81
2022-12-08T04:39:14.217Z,100703.22
2022-12-08T04:41:44.354Z,100702.87
2022-12-08T04:44:14.279Z,100703.94
2022-12-08T04:49:14.284Z,100707.95000000001
2022-12-08T04:51:44.447Z,100708.48
2022-12-08T04:56:44.525Z,100709.05
2022-12-08T05:09:14.354Z,100699.22
2022-12-08T05:11:48.809Z,100694.53
2022-12-08T05:16:45.167Z,100697.34999999999
2022-12-08T05:26:44.356Z,100697.19
2022-12-08T05:31:44.300Z,100709.64
2022-12-08T05:34:14.284Z,100711.90000000001
2022-12-08T05:36:44.488Z,100701.21
2022-12-08T05:39:14.891Z,100700.7
2022-12-08T05:41:44.359Z,100700.58
2022-12-08T05:44:14.274Z,100697.90000000001
2022-12-08T05:46:44.327Z,100695.7
2022-12-08T05:49:14.391Z,100688.53
2022-12-08T05:51:44.497Z,100688.11
2022-12-08T05:54:14.316Z,100689.48000000001
2022-12-08T05:56:44.249Z,100683.0
2022-12-08T05:59:14.330Z,100680.75
2022-12-08T06:01:44.472Z,100676.57
2022-12-08T06:04:14.495Z,100681.11
2022-12-08T06:06:44.287Z,100676.39
2022-12-08T06:09:14.311Z,100673.06999999999
2022-12-08T06:14:14.332Z,100668.12999999999
2022-12-08T06:16:44.381Z,100663.34000000001
2022-12-08T06:19:15.208Z,100666.61
2022-12-08T06:21:44.289Z,100667.92
2022-12-08T06:24:14.271Z,100676.9
2022-12-08T06:26:45.937Z,100682.7
2022-12-08T06:29:14.566Z,100681.11
2022-12-08T06:31:44.565Z,100683.83
2022-12-08T06:34:14.310Z,100683.54000000001
2022-12-08T06:36:44.253Z,100683.12
2022-12-08T06:39:14.434Z,100683.4
2022-12-08T06:41:54.248Z,100686.79
2022-12-08T06:44:14.271Z,100681.34
2022-12-08T06:46:44.445Z,100682.19
2022-12-08T06:49:14.268Z,100683.75
2022-12-08T06:51:44.384Z,100683.82
2022-12-08T06:54:14.424Z,100688.08
2022-12-08T06:56:44.305Z,100688.72
2022-12-08T06:59:14.273Z,100685.68000000001
2022-12-08T07:01:44.891Z,100687.84000000001
2022-12-08T07:04:18.515Z,100689.37
2022-12-08T07:06:44.298Z,100691.39
2022-12-08T07:09:14.524Z,100693.93
2022-12-08T07:11:44.399Z,100696.5
2022-12-08T07:14:14.406Z,100694.08
2022-12-08T07:16:44.581Z,100697.91
2022-12-08T07:19:14.467Z,100695.36
2022-12-08T07:21:44.578Z,100696.43
2022-12-08T07:24:14.280Z,100698.63
2022-12-08T07:26:44.400Z,100692.94
2022-12-08T07:29:14.500Z,100696.66
2022-12-08T07:31:44.305Z,100699.41
2022-12-08T07:34:14.287Z,100694.96
2022-12-08T07:36:44.396Z,100698.13
2022-12-08T07:39:14.342Z,100701.4
2022-12-08T07:41:44.398Z,100704.54999999999
2022-12-08T07:46:45.162Z,100700.72
2022-12-08T07:49:14.293Z,100702.76
2022-12-08T07:51:44.466Z,100699.83
2022-12-08T07:54:14.390Z,100700.3
2022-12-08T07:56:44.611Z,100700.73
2022-12-08T07:59:14.495Z,100701.9
2022-12-08T08:01:45.590Z,100702.23999999999
2022-12-08T08:04:14.628Z,100702.20000000001
2022-12-08T08:06:44.235Z,100697.64
2022-12-08T08:09:14.340Z,100691.04999999999
2022-12-08T08:14:14.344Z,100691.09
2022-12-08T08:16:46.522Z,100689.94
2022-12-08T08:19:14.306Z,100688.42
2022-12-08T08:24:14.327Z,100693.62999999999
2022-12-08T08:26:44.368Z,100702.37
2022-12-08T08:29:14.765Z,100701.04
2022-12-08T08:31:44.349Z,100702.04
2022-12-08T08:34:14.821Z,100701.15
2022-12-08T08:36:44.543Z,100699.17
2022-12-08T08:39:14.429Z,100705.48999999999
2022-12-08T08:41:45.694Z,100705.39
2022-12-08T08:44:14.455Z,100712.36
2022-12-08T08:46:44.476Z,100710.74
2022-12-08T08:49:14.368Z,100711.22
2022-12-08T08:51:44.336Z,100709.36
2022-12-08T08:54:14.693Z,100713.47
2022-12-08T08:59:14.386Z,100708.61
2022-12-08T09:01:44.435Z,100707.64
2022-12-08T09:06:44.734Z,100709.67000000001
2022-12-08T09:09:15.529Z,100709.99
2022-12-08T09:11:44.713Z,100709.93999999999
2022-12-08T09:14:14.600Z,100707.31
2022-12-08T09:16:44.410Z,100709.03
2022-12-08T09:19:14.841Z,100709.64
2022-12-08T09:21:44.788Z,100708.09000000001
2022-12-08T09:29:14.391Z,100710.74
2022-12-08T09:31:44.763Z,100708.89
2022-12-08T09:34:14.452Z,100708.11
2022-12-08T09:36:44.344Z,100708.91
2022-12-08T09:39:14.491Z,100714.31
2022-12-08T09:41:49.172Z,100710.58
2022-12-08T09:46:47.689Z,100706.26
2022-12-08T09:49:17.497Z,100700.27
2022-12-08T09:51:44.671Z,100695.9
2022-12-08T09:54:19.569Z,100700.09
2022-12-08T09:56:44.696Z,100698.83
2022-12-08T09:59:22.358Z,100701.0
2022-12-08T10:01:44.584Z,100705.42
2022-12-08T10:04:24.866Z,100705.17
2022-12-08T10:06:55.055Z,100705.74
2022-12-08T10:09:27.813Z,100702.53
2022-12-08T10:11:53.132Z,100702.66
2022-12-08T10:14:23.796Z,100701.26000000001
2022-12-08T10:16:48.780Z,100699.62000000001
2022-12-08T10:19:19.217Z,100701.33
2022-12-08T10:21:45.744Z,100701.4
2022-12-08T10:24:21.501Z,100705.47
2022-12-08T10:26:46.073Z,100707.11
2022-12-08T10:29:15.010Z,100706.53
2022-12-08T10:31:44.581Z,100711.40000000001
2022-12-08T10:34:18.273Z,100715.99
2022-12-08T10:36:46.243Z,100717.16
2022-12-08T10:39:33.055Z,100713.86
2022-12-08T10:41:44.353Z,100722.33
2022-12-08T10:44:15.998Z,100719.24
2022-12-08T10:46:44.795Z,100714.18
2022-12-08T10:49:25.803Z,100716.6
2022-12-08T10:51:44.426Z,100720.65
2022-12-08T10:54:27.259Z,100724.98000000001
2022-12-08T10:56:52.589Z,100721.77
2022-12-08T10:59:17.868Z,100714.64
2022-12-08T11:01:47.512Z,100712.11
2022-12-08T11:04:17.639Z,100709.25
2022-12-08T11:06:45.624Z,100711.55
2022-12-08T11:09:31.963Z,100707.39
2022-12-08T11:11:47.172Z,100708.06999999999
2022-12-08T11:14:17.511Z,100702.95
2022-12-08T11:16:45.039Z,100702.37
2022-12-08T11:19:16.828Z,100693.76999999999
2022-12-08T11:21:45.082Z,100695.89
2022-12-08T11:24:23.017Z,100692.7
2022-12-08T11:26:50.414Z,100690.41
2022-12-08T11:29:16.084Z,100688.22
2022-12-08T11:31:49.049Z,100682.76
2022-12-08T11:34:22.694Z,100682.81
2022-12-08T11:36:46.612Z,100680.0
2022-12-08T11:39:14.721Z,100677.81
2022-12-08T11:41:46.626Z,100676.09999999999
2022-12-08T11:44:24.889Z,100675.49
2022-12-08T11:46:50.370Z,100675.65
2022-12-08T11:51:53.490Z,100677.81
2022-12-08T11:54:21.607Z,100683.11
2022-12-08T11:56:47.809Z,100687.25
2022-12-08T11:59:22.040Z,100694.62
2022-12-08T12:01:44.487Z,100699.65999999999
2022-12-08T12:04:22.774Z,100697.02
2022-12-08T12:07:03.561Z,100694.11
2022-12-08T12:09:18.467Z,100691.8
2022-12-08T12:12:06.705Z,100692.61
2022-12-08T12:14:31.279Z,100684.75
2022-12-08T12:16:59.694Z,100683.12
2022-12-08T12:19:17.706Z,100688.23
2022-12-08T12:21:49.377Z,100683.62
2022-12-08T12:24:25.321Z,100682.11
2022-12-08T12:26:55.051Z,100675.05
2022-12-08T12:29:18.456Z,100676.65
2022-12-08T12:31:51.241Z,100673.20999999999
2022-12-08T12:34:17.697Z,100674.77
2022-12-08T12:36:48.432Z,100677.62
2022-12-08T12:39:17.608Z,100672.83
2022-12-08T12:41:47.919Z,100672.92
2022-12-08T12:44:34.063Z,100671.39
2022-12-08T12:46:56.135Z,100670.34
2022-12-08T12:49:34.179Z,100671.41
2022-12-08T12:51:45.666Z,100671.37
2022-12-08T12:54:20.990Z,100673.53
2022-12-08T12:56:47.460Z,100670.51
2022-12-08T13:01:53.136Z,100674.98000000001
2022-12-08T13:04:15.304Z,100672.92
2022-12-08T13:11:48.023Z,100672.43999999999
2022-12-08T13:14:26.979Z,100672.77
2022-12-08T13:16:44.509Z,100665.52
2022-12-08T13:24:28.520Z,100669.98
2022-12-08T13:26:46.140Z,100666.52
2022-12-08T13:29:18.279Z,100664.34000000001
2022-12-08T13:31:50.599Z,100668.83
2022-12-08T13:34:18.489Z,100670.06999999999
2022-12-08T13:36:54.282Z,100668.09
2022-12-08T13:39:20.655Z,100666.45999999999
2022-12-08T13:41:59.779Z,100662.12000000001
2022-12-08T13:45:11.341Z,100652.69
2022-12-08T13:47:17.187Z,100655.29000000001
2022-12-08T13:53:22.358Z,100653.36
2022-12-08T13:55:12.245Z,100654.02
2022-12-08T13:57:07.154Z,100657.51000000001
2022-12-08T13:59:27.433Z,100660.79999999999
2022-12-08T14:01:47.807Z,100657.86
2022-12-08T14:04:47.772Z,100653.93000000001
2022-12-08T14:06:48.701Z,100653.45
2022-12-08T14:09:21.340Z,100651.72
2022-12-08T14:11:49.597Z,100653.83
2022-12-08T14:14:32.529Z,100651.36
2022-12-08T14:16:49.784Z,100656.39
2022-12-08T14:19:17.845Z,100656.31
2022-12-08T14:21:50.810Z,100660.25
2022-12-08T14:24:14.539Z,100654.35
2022-12-08T14:26:46.233Z,100652.81
2022-12-08T14:29:32.396Z,100656.46
2022-12-08T14:31:44.480Z,100662.27
2022-12-08T14:34:14.591Z,100661.37999999999
2022-12-08T14:36:44.844Z,100663.51
2022-12-08T14:39:14.719Z,100664.98
2022-12-08T14:41:58.307Z,100670.64
2022-12-08T14:44:22.440Z,100673.95
2022-12-08T14:47:05.886Z,100672.74
2022-12-08T14:49:32.297Z,100675.44
2022-12-08T14:51:44.604Z,100667.58
2022-12-08T14:54:18.124Z,100667.64
2022-12-08T14:56:51.020Z,100671.88
2022-12-08T14:59:19.240Z,100670.68000000001
2022-12-08T15:01:46.139Z,100672.0
2022-12-08T15:04:19.322Z,100673.39
2022-12-08T15:06:50.384Z,100676.36
2022-12-08T15:09:17.374Z,100675.17
2022-12-08T15:11:44.812Z,100675.75
2022-12-08T15:14:26.761Z,100679.52
2022-12-08T15:16:44.846Z,100684.63
2022-12-08T15:19:18.693Z,100687.15999999999
2022-12-08T15:21:45.589Z,100687.22
2022-12-08T15:24:15.757Z,100689.22
2022-12-08T15:26:47.097Z,100691.58
2022-12-08T15:29:20.548Z,100688.78
2022-12-08T15:31:44.531Z,100688.03
2022-12-08T15:34:14.918Z,100685.20999999999
2022-12-08T15:36:44.774Z,100679.44
2022-12-08T15:39:24.668Z,100685.75
2022-12-08T15:41:44.768Z,100690.4
2022-12-08T15:44:14.425Z,100691.68
2022-12-08T15:46:44.667Z,100696.23
2022-12-08T15:49:17.442Z,100702.09
2022-12-08T15:51:44.526Z,100705.44
2022-12-08T15:54:15.542Z,100707.78
2022-12-08T15:57:10.840Z,100711.29
2022-12-08T15:59:16.854Z,100704.52
2022-12-08T16:01:45.004Z,100702.76
2022-12-08T16:09:18.413Z,100704.17
2022-12-08T16:12:06.057Z,100705.69
2022-12-08T16:15:01.985Z,100708.62
2022-12-08T16:16:44.607Z,100711.27
2022-12-08T16:19:14.590Z,100712.0
2022-12-08T16:24:14.571Z,100713.01
2022-12-08T16:27:57.979Z,100715.8
2022-12-08T16:29:18.065Z,100714.64
2022-12-08T16:31:44.561Z,100718.78
2022-12-08T16:34:14.503Z,100721.36
2022-12-08T16:36:44.548Z,100718.22
2022-12-08T16:39:14.571Z,100722.85
2022-12-08T16:41:54.543Z,100723.25
2022-12-08T16:44:14.821Z,100726.15
2022-12-08T16:46:44.467Z,100723.19
2022-12-08T16:49:14.963Z,100717.1
2022-12-08T16:51:44.693Z,100715.59999999999
2022-12-08T16:54:14.632Z,100712.67
2022-12-08T16:56:44.553Z,100713.7
2022-12-08T16:59:14.485Z,100714.15
2022-12-08T17:01:44.514Z,100713.59
2022-12-08T17:04:31.694Z,100715.23
2022-12-08T17:06:44.605Z,100718.62999999999
2022-12-08T17:09:15.044Z,100719.83
2022-12-08T17:11:44.938Z,100723.53
2022-12-08T17:14:15.654Z,100719.01000000001
2022-12-08T17:16:44.983Z,100725.19
2022-12-08T17:19:14.976Z,100730.74
2022-12-08T17:21:45.022Z,100731.72
2022-12-08T17:24:17.248Z,100735.06
2022-12-08T17:26:44.561Z,100734.39
2022-12-08T17:29:14.488Z,100731.53
2022-12-08T17:31:44.595Z,100728.88
2022-12-08T17:34:14.727Z,100726.2
2022-12-08T17:36:44.502Z,100721.75
2022-12-08T17:39:18.370Z,100719.48
2022-12-08T17:41:44.894Z,100721.2
2022-12-08T17:44:17.427Z,100717.76999999999
2022-12-08T17:46:50.699Z,100716.85
2022-12-08T17:51:46.192Z,100718.67
2022-12-08T17:54:14.908Z,100714.56
2022-12-08T17:56:45.461Z,100717.3
2022-12-08T17:59:14.567Z,100712.66
2022-12-08T18:01:44.756Z,100712.73999999999
2022-12-08T18:04:14.468Z,100710.55
2022-12-08T18:06:44.796Z,100709.12
2022-12-08T18:09:15.373Z,100706.48999999999
2022-12-08T18:11:45.538Z,100705.67
2022-12-08T18:14:15.228Z,100708.51
2022-12-08T18:16:46.123Z,100703.64
2022-12-08T18:19:14.948Z,100707.9
2022-12-08T18:21:44.999Z,100706.54
2022-12-08T18:24:17.648Z,100704.49
2022-12-08T18:26:44.795Z,100703.43000000001
2022-12-08T18:29:14.553Z,100703.52
2022-12-08T18:31:44.658Z,100704.8
2022-12-08T18:34:15.181Z,100707.83
2022-12-08T18:36:46.299Z,100711.05
2022-12-08T18:39:21.104Z,100707.56999999999
2022-12-08T18:41:44.497Z,100705.94
2022-12-08T18:44:14.504Z,100710.99
2022-12-08T18:46:45.047Z,100711.65
2022-12-08T18:49:16.453Z,100712.08
2022-12-08T18:51:45.431Z,100719.48
2022-12-08T18:54:14.786Z,100716.31
2022-12-08T18:56:44.462Z,100720.82
2022-12-08T18:59:14.688Z,100721.2
2022-12-08T19:01:44.939Z,100727.61
2022-12-08T19:04:29.544Z,100724.37
2022-12-08T19:06:45.543Z,100725.41
2022-12-08T19:09:15.032Z,100728.33
2022-12-08T19:11:44.700Z,100724.76000000001
2022-12-08T19:14:14.574Z,100729.39
2022-12-08T19:16:44.436Z,100726.92
2022-12-08T19:19:14.986Z,100725.39
2022-12-08T19:21:46.713Z,100724.77
2022-12-08T19:24:14.645Z,100730.86
2022-12-08T19:26:45.250Z,100732.2
2022-12-08T19:29:14.691Z,100730.53
2022-12-08T19:31:44.858Z,100733.23000000001
2022-12-08T19:34:15.605Z,100737.0
2022-12-08T19:39:27.465Z,100734.41
2022-12-08T19:41:54.331Z,100736.92
2022-12-08T19:44:28.497Z,100731.67
2022-12-08T19:46:44.670Z,100731.12
2022-12-08T19:49:14.531Z,100736.33
2022-12-08T19:51:44.970Z,100735.03
2022-12-08T19:54:14.536Z,100735.13
2022-12-08T19:56:44.754Z,100733.59
2022-12-08T19:59:14.822Z,100728.05
2022-12-08T20:01:47.044Z,100728.5
2022-12-08T20:04:15.257Z,100725.0
2022-12-08T20:06:45.235Z,100724.37999999999
2022-12-08T20:09:14.813Z,100722.69
2022-12-08T20:11:44.550Z,100730.22
2022-12-08T20:14:14.535Z,100738.26000000001
2022-12-08T20:16:44.554Z,100744.9
2022-12-08T20:19:14.734Z,100742.98999999999
2022-12-08T20:21:44.615Z,100746.09
2022-12-08T20:24:15.703Z,100745.5
2022-12-08T20:26:44.601Z,100741.8
2022-12-08T20:29:16.031Z,100743.66
2022-12-08T20:31:45.685Z,100742.93000000001
2022-12-08T20:34:16.714Z,100744.26
2022-12-08T20:36:45.197Z,100742.17
2022-12-08T20:39:16.905Z,100750.64
2022-12-08T20:41:45.918Z,100746.01
2022-12-08T20:44:14.631Z,100751.05
2022-12-08T20:46:49.237Z,100754.17
2022-12-08T20:49:14.626Z,100752.82999999999
2022-12-08T20:51:45.548Z,100755.38
2022-12-08T20:54:15.017Z,100754.74
2022-12-08T20:56:48.387Z,100751.87
2022-12-08T20:59:15.659Z,100752.55
2022-12-08T21:01:45.071Z,100752.5
2022-12-08T21:04:15.974Z,100750.42
2022-12-08T21:06:44.894Z,100753.09
2022-12-08T21:09:15.198Z,100754.26999999999
2022-12-08T21:11:44.798Z,100752.98
2022-12-08T21:14:14.900Z,100760.03
2022-12-08T21:16:45.017Z,100762.13
2022-12-08T21:19:14.933Z,100766.92
2022-12-08T21:21:45.268Z,100770.24
2022-12-08T21:24:14.758Z,100769.39
2022-12-08T21:26:44.523Z,100762.69
2022-12-08T21:29:16.431Z,100759.84
2022-12-08T21:34:14.695Z,100764.89
2022-12-08T21:36:44.901Z,100764.22
2022-12-08T21:39:14.645Z,100765.38
2022-12-08T21:41:54.698Z,100763.21
2022-12-08T21:44:17.694Z,100759.65
2022-12-08T21:46:44.703Z,100764.14
2022-12-08T21:49:16.126Z,100769.06
2022-12-08T21:51:44.726Z,100766.11
2022-12-08T21:54:18.804Z,100768.87000000001
2022-12-08T22:11:45.268Z,100772.66
2022-12-08T22:14:15.435Z,100773.75
2022-12-08T22:16:44.851Z,100778.53
2022-12-08T22:19:14.625Z,100776.86
2022-12-08T22:21:45.088Z,100774.81
2022-12-08T22:24:14.847Z,100774.97
2022-12-08T22:26:45.338Z,100772.67
2022-12-08T22:31:44.711Z,100772.0
2022-12-08T22:39:14.851Z,100772.70999999999
2022-12-08T22:41:44.777Z,100768.75
2022-12-08T22:44:15.142Z,100767.33
2022-12-08T22:46:44.796Z,100769.12
2022-12-08T22:49:14.529Z,100767.03
2022-12-08T22:54:14.857Z,100765.49
2022-12-08T22:56:44.539Z,100769.65
2022-12-08T22:59:15.103Z,100761.89
2022-12-08T23:01:44.556Z,100763.33
2022-12-08T23:06:45.122Z,100751.49
2022-12-08T23:09:14.717Z,100754.64
2022-12-08T23:11:44.548Z,100753.23
2022-12-08T23:14:15.210Z,100755.92
2022-12-08T23:16:45.515Z,100759.97
2022-12-08T23:19:14.783Z,100760.27
2022-12-08T23:21:44.936Z,100761.63
2022-12-08T23:24:14.619Z,100759.14
2022-12-08T23:26:44.576Z,100763.39
2022-12-08T23:29:14.830Z,100762.89
2022-12-08T23:31:44.731Z,100760.20999999999
2022-12-08T23:34:14.814Z,100759.89
2022-12-08T23:36:44.911Z,100756.56
2022-12-08T23:39:14.692Z,100755.83
2022-12-08T23:41:44.746Z,100754.76999999999
2022-12-08T23:46:45.056Z,100756.37000000001
2022-12-08T23:49:15.147Z,100753.08
2022-12-08T23:51:44.626Z,100749.06999999999
2022-12-08T23:54:15.434Z,100746.09
2022-12-08T23:56:44.553Z,100748.53
2022-12-08T23:59:16.497Z,100756.17
